createdAt,value
2023-08-23T00:00:22.237Z,92.90
2023-08-23T00:03:23.915Z,93.00
2023-08-23T00:06:25.835Z,93.50
2023-08-23T00:09:27.508Z,93.00
2023-08-23T00:12:29.232Z,93.00
2023-08-23T00:15:30.915Z,93.10
2023-08-23T00:18:32.708Z,93.30
2023-08-23T00:21:34.289Z,93.00
2023-08-23T00:24:35.928Z,93.30
2023-08-23T00:27:37.589Z,93.30
2023-08-23T00:30:39.191Z,93.40
2023-08-23T00:33:42.032Z,93.70
2023-08-23T00:36:43.890Z,93.80
2023-08-23T00:39:48.111Z,93.80
2023-08-23T00:42:49.738Z,94.50
2023-08-23T00:45:51.736Z,93.90
2023-08-23T00:48:53.451Z,94.10
2023-08-23T00:51:56.379Z,94.00
2023-08-23T00:54:58.966Z,94.00
2023-08-23T00:58:00.657Z,94.00
2023-08-23T01:01:02.316Z,94.10
2023-08-23T01:04:04.133Z,94.00
2023-08-23T01:07:14.821Z,94.10
2023-08-23T01:10:28.232Z,94.40
2023-08-23T01:13:41.372Z,93.70
2023-08-23T01:16:46.663Z,94.50
2023-08-23T01:19:50.301Z,94.90
2023-08-23T01:23:05.604Z,94.60
2023-08-23T01:26:07.208Z,94.40
2023-08-23T01:29:08.884Z,94.20
2023-08-23T01:32:47.547Z,94.80
2023-08-23T01:36:06.542Z,94.00
2023-08-23T01:39:10.308Z,94.50
2023-08-23T01:42:12.371Z,94.50
2023-08-23T01:45:14.143Z,94.50
2023-08-23T01:48:15.854Z,94.60
2023-08-23T01:51:17.501Z,94.60
2023-08-23T01:54:19.198Z,94.70
2023-08-23T01:57:20.754Z,94.60
2023-08-23T02:00:22.404Z,94.70
2023-08-23T02:03:24.103Z,94.80
2023-08-23T02:06:25.806Z,94.80
2023-08-23T02:09:27.758Z,94.80
2023-08-23T02:12:29.358Z,94.90
2023-08-23T02:15:31.677Z,94.80
2023-08-23T02:18:33.349Z,95.00
2023-08-23T02:21:36.114Z,95.00
2023-08-23T02:24:37.861Z,95.50
2023-08-23T02:27:39.561Z,95.30
2023-08-23T02:30:41.611Z,95.60
2023-08-23T02:33:43.212Z,95.40
2023-08-23T02:36:44.912Z,95.40
2023-08-23T02:39:46.655Z,95.60
2023-08-23T02:42:48.270Z,95.70
2023-08-23T02:45:50.362Z,95.70
2023-08-23T02:48:52.025Z,95.50
2023-08-23T02:51:54.133Z,95.60
2023-08-23T02:54:55.708Z,94.90
2023-08-23T02:57:57.788Z,95.60
2023-08-23T03:00:59.394Z,95.50
2023-08-23T03:04:01.024Z,95.70
2023-08-23T03:07:02.672Z,95.50
2023-08-23T03:10:04.583Z,95.90
2023-08-23T03:13:06.206Z,95.40
2023-08-23T03:16:07.835Z,95.50
2023-08-23T03:19:09.618Z,95.40
2023-08-23T03:22:11.229Z,95.40
2023-08-23T03:25:12.913Z,95.50
2023-08-23T03:28:14.845Z,95.40
2023-08-23T03:31:16.575Z,95.60
2023-08-23T03:34:18.210Z,95.20
2023-08-23T03:37:19.829Z,96.10
2023-08-23T03:40:21.699Z,95.70
2023-08-23T03:43:23.390Z,95.70
2023-08-23T03:46:26.635Z,96.20
2023-08-23T03:49:29.787Z,96.10
2023-08-23T03:52:31.528Z,96.10
2023-08-23T03:55:33.325Z,96.00
2023-08-23T03:58:35.983Z,96.00
2023-08-23T04:01:37.726Z,96.40
2023-08-23T04:04:39.464Z,96.10
2023-08-23T04:07:41.886Z,96.30
2023-08-23T04:10:50.915Z,96.10
2023-08-23T04:13:52.527Z,96.20
2023-08-23T04:16:54.163Z,96.10
2023-08-23T04:19:55.934Z,96.30
2023-08-23T04:22:57.564Z,95.70
2023-08-23T04:25:59.229Z,96.10
2023-08-23T04:29:00.818Z,96.50
2023-08-23T04:32:02.519Z,96.20
2023-08-23T04:35:05.361Z,96.30
2023-08-23T04:38:11.358Z,96.30
2023-08-23T04:41:13.018Z,96.60
2023-08-23T04:44:14.629Z,96.50
2023-08-23T04:47:16.264Z,96.70
2023-08-23T04:50:17.960Z,96.70
2023-08-23T04:53:19.687Z,96.70
2023-08-23T04:56:21.310Z,96.70
2023-08-23T04:59:23.010Z,96.80
2023-08-23T05:02:24.650Z,96.80
2023-08-23T05:05:26.414Z,96.70
2023-08-23T05:08:29.205Z,96.70
2023-08-23T05:11:30.928Z,96.70
2023-08-23T05:14:32.610Z,96.50
2023-08-23T05:17:35.439Z,96.60
2023-08-23T05:20:38.803Z,96.90
2023-08-23T05:23:40.398Z,96.60
2023-08-23T05:26:42.113Z,96.80
2023-08-23T05:29:45.099Z,96.50
2023-08-23T05:32:46.785Z,96.60
2023-08-23T05:35:48.446Z,96.70
2023-08-23T05:38:51.475Z,96.50
2023-08-23T05:41:53.087Z,96.50
2023-08-23T05:44:54.715Z,96.50
2023-08-23T05:47:56.947Z,96.80
2023-08-23T05:50:58.606Z,96.70
2023-08-23T05:54:00.360Z,96.60
2023-08-23T05:57:01.978Z,96.40
2023-08-23T06:00:04.259Z,96.10
2023-08-23T06:03:06.077Z,96.20
2023-08-23T06:06:08.458Z,96.10
2023-08-23T06:09:10.059Z,96.20
2023-08-23T06:12:11.654Z,96.30
2023-08-23T06:15:13.258Z,96.20
2023-08-23T06:18:15.013Z,96.50
2023-08-23T06:21:19.871Z,96.00
2023-08-23T06:24:21.878Z,96.10
2023-08-23T06:27:23.532Z,95.60
2023-08-23T06:30:25.192Z,95.70
2023-08-23T06:33:26.882Z,95.30
2023-08-23T06:36:28.499Z,95.50
2023-08-23T06:39:34.232Z,95.50
2023-08-23T06:42:36.482Z,95.60
2023-08-23T06:45:38.095Z,96.20
2023-08-23T06:48:39.692Z,95.90
2023-08-23T06:51:41.329Z,95.80
2023-08-23T06:54:42.939Z,95.40
2023-08-23T06:57:44.540Z,95.10
2023-08-23T07:00:46.161Z,95.40
2023-08-23T07:03:47.963Z,95.00
2023-08-23T07:06:49.640Z,94.90
2023-08-23T07:09:51.601Z,94.90
2023-08-23T07:12:53.278Z,94.70
2023-08-23T07:15:55.932Z,94.50
2023-08-23T07:18:58.106Z,95.20
2023-08-23T07:21:59.757Z,94.60
2023-08-23T07:25:01.521Z,94.60
2023-08-23T07:28:03.308Z,94.90
2023-08-23T07:31:04.971Z,94.20
2023-08-23T07:34:06.692Z,94.30
2023-08-23T07:37:08.324Z,94.00
2023-08-23T07:40:10.756Z,94.00
2023-08-23T07:43:12.432Z,93.70
2023-08-23T07:46:14.151Z,93.70
2023-08-23T07:49:16.441Z,94.00
2023-08-23T07:52:18.251Z,93.60
2023-08-23T07:55:19.825Z,93.50
2023-08-23T07:58:21.463Z,93.50
2023-08-23T08:01:23.194Z,93.20
2023-08-23T08:04:26.137Z,93.40
2023-08-23T08:07:56.192Z,93.50
2023-08-23T08:10:51.195Z,93.40
2023-08-23T08:13:52.890Z,93.20
2023-08-23T08:16:54.472Z,95.20
2023-08-23T08:19:57.609Z,93.20
2023-08-23T08:22:59.867Z,92.90
2023-08-23T08:26:02.474Z,93.40
2023-08-23T08:29:06.467Z,93.10
2023-08-23T08:32:08.740Z,92.60
2023-08-23T08:35:10.734Z,92.60
2023-08-23T08:38:12.407Z,92.90
2023-08-23T08:41:14.294Z,92.80
2023-08-23T08:44:16.351Z,92.60
2023-08-23T08:47:17.980Z,92.40
2023-08-23T08:50:20.801Z,92.80
2023-08-23T08:53:24.228Z,92.30
2023-08-23T08:56:27.076Z,92.40
2023-08-23T08:59:29.211Z,92.50
2023-08-23T09:02:32.461Z,91.90
2023-08-23T09:05:34.864Z,92.10
2023-08-23T09:08:41.727Z,91.70
2023-08-23T09:11:43.384Z,91.70
2023-08-23T09:14:50.089Z,91.90
2023-08-23T09:17:55.954Z,91.50
2023-08-23T09:20:57.641Z,91.10
2023-08-23T09:24:02.414Z,91.50
2023-08-23T09:27:04.284Z,90.70
2023-08-23T09:30:06.646Z,90.90
2023-08-23T09:33:10.982Z,90.50
2023-08-23T09:36:13.235Z,90.90
2023-08-23T09:39:14.836Z,90.70
2023-08-23T09:42:16.974Z,90.60
2023-08-23T09:45:23.168Z,90.90
2023-08-23T09:48:27.002Z,91.00
2023-08-23T09:51:30.000Z,90.50
2023-08-23T09:55:04.249Z,90.70
2023-08-23T09:58:15.561Z,89.20
2023-08-23T10:01:19.746Z,90.40
2023-08-23T10:04:25.798Z,90.60
2023-08-23T10:07:27.974Z,90.10
2023-08-23T10:10:31.780Z,90.00
2023-08-23T10:13:35.655Z,90.00
2023-08-23T10:16:37.903Z,90.30
2023-08-23T10:19:39.648Z,89.80
2023-08-23T10:22:41.953Z,90.00
2023-08-23T10:25:44.760Z,89.90
2023-08-23T10:28:53.394Z,88.70
2023-08-23T10:31:56.152Z,86.10
2023-08-23T10:34:57.735Z,89.20
2023-08-23T10:38:00.464Z,88.30
2023-08-23T10:41:02.776Z,87.30
2023-08-23T10:44:15.167Z,86.80
2023-08-23T10:47:17.290Z,88.00
2023-08-23T10:50:20.319Z,85.80
2023-08-23T10:53:24.567Z,85.30
2023-08-23T10:56:29.415Z,85.00
2023-08-23T10:59:31.043Z,85.80
2023-08-23T11:02:33.760Z,84.80
2023-08-23T11:05:35.902Z,85.80
2023-08-23T11:08:37.658Z,85.00
2023-08-23T11:11:39.270Z,85.20
2023-08-23T11:14:40.935Z,87.00
2023-08-23T11:17:42.617Z,85.30
2023-08-23T11:20:44.568Z,86.30
2023-08-23T11:23:46.198Z,86.80
2023-08-23T11:26:47.791Z,85.20
2023-08-23T11:29:49.583Z,85.10
2023-08-23T11:32:51.242Z,84.20
2023-08-23T11:35:53.272Z,84.40
2023-08-23T11:38:54.918Z,84.10
2023-08-23T11:42:00.099Z,82.60
2023-08-23T11:45:06.416Z,82.00
2023-08-23T11:48:09.189Z,79.90
2023-08-23T11:51:10.889Z,82.30
2023-08-23T11:54:12.910Z,81.80
2023-08-23T11:57:24.070Z,81.60
2023-08-23T12:00:25.956Z,79.00
2023-08-23T12:03:27.698Z,81.50
2023-08-23T12:06:29.674Z,81.40
2023-08-23T12:09:31.565Z,81.60
2023-08-23T12:12:33.148Z,78.70
2023-08-23T12:15:35.436Z,79.90
2023-08-23T12:18:38.006Z,78.10
2023-08-23T12:21:39.602Z,79.30
2023-08-23T12:24:41.825Z,79.20
2023-08-23T12:27:43.947Z,78.20
2023-08-23T12:30:45.610Z,76.60
2023-08-23T12:33:47.601Z,77.90
2023-08-23T12:36:49.325Z,78.40
2023-08-23T12:39:50.943Z,78.60
2023-08-23T12:42:52.905Z,78.90
2023-08-23T12:45:54.574Z,78.10
2023-08-23T12:48:56.279Z,78.50
2023-08-23T12:51:58.012Z,78.30
2023-08-23T12:54:59.660Z,77.90
2023-08-23T12:58:01.280Z,77.10
2023-08-23T13:01:03.612Z,77.10
2023-08-23T13:04:05.462Z,76.90
2023-08-23T13:07:07.104Z,77.20
2023-08-23T13:10:09.146Z,77.10
2023-08-23T13:13:10.924Z,75.80
2023-08-23T13:16:12.570Z,76.10
2023-08-23T13:19:14.346Z,75.90
2023-08-23T13:22:15.979Z,75.80
2023-08-23T13:25:18.225Z,75.80
2023-08-23T13:28:19.904Z,75.10
2023-08-23T13:31:24.558Z,76.10
2023-08-23T13:34:26.226Z,74.90
2023-08-23T13:37:27.841Z,74.30
2023-08-23T13:40:31.092Z,75.00
2023-08-23T13:43:33.606Z,73.40
2023-08-23T13:46:35.297Z,73.70
2023-08-23T13:49:36.985Z,74.20
2023-08-23T13:52:38.844Z,74.00
2023-08-23T13:55:40.440Z,75.00
2023-08-23T13:58:42.390Z,74.20
2023-08-23T14:01:45.433Z,72.70
2023-08-23T14:04:47.196Z,73.10
2023-08-23T14:07:49.092Z,73.30
2023-08-23T14:10:52.032Z,73.90
2023-08-23T14:13:53.727Z,72.50
2023-08-23T14:16:55.599Z,73.40
2023-08-23T14:19:57.204Z,72.30
2023-08-23T14:23:00.703Z,73.20
2023-08-23T14:26:04.992Z,73.00
2023-08-23T14:29:06.715Z,71.80
2023-08-23T14:32:08.711Z,72.50
2023-08-23T14:35:10.540Z,72.10
2023-08-23T14:38:14.674Z,72.00
2023-08-23T14:41:16.288Z,72.60
2023-08-23T14:44:17.987Z,72.10
2023-08-23T14:47:19.589Z,70.70
2023-08-23T14:50:23.440Z,71.50
2023-08-23T14:53:25.849Z,71.40
2023-08-23T14:56:27.484Z,71.40
2023-08-23T14:59:29.095Z,70.70
2023-08-23T15:02:30.855Z,71.70
2023-08-23T15:05:32.792Z,72.20
2023-08-23T15:08:34.435Z,70.00
2023-08-23T15:11:36.085Z,70.00
2023-08-23T15:14:37.726Z,67.70
2023-08-23T15:17:39.465Z,68.60
2023-08-23T15:20:41.136Z,67.50
2023-08-23T15:23:42.802Z,67.60
2023-08-23T15:26:44.428Z,69.90
2023-08-23T15:30:01.105Z,69.70
2023-08-23T15:33:09.437Z,67.80
2023-08-23T15:36:11.219Z,70.70
2023-08-23T15:39:13.173Z,71.60
2023-08-23T15:42:14.871Z,72.80
2023-08-23T15:45:19.561Z,73.30
2023-08-23T15:48:21.380Z,72.30
2023-08-23T15:51:23.059Z,72.00
2023-08-23T15:54:24.693Z,71.50
2023-08-23T15:57:26.300Z,72.00
2023-08-23T16:00:28.991Z,72.40
2023-08-23T16:03:30.681Z,71.30
2023-08-23T16:06:32.423Z,73.40
2023-08-23T16:09:34.103Z,77.50
2023-08-23T16:12:35.776Z,71.40
2023-08-23T16:15:37.386Z,72.90
2023-08-23T16:18:39.356Z,71.50
2023-08-23T16:21:42.303Z,72.10
2023-08-23T16:24:44.271Z,71.00
2023-08-23T16:27:46.055Z,72.30
2023-08-23T16:30:51.590Z,71.10
2023-08-23T16:33:53.505Z,71.60
2023-08-23T16:36:55.411Z,72.90
2023-08-23T16:39:57.042Z,72.00
2023-08-23T16:42:58.931Z,74.00
2023-08-23T16:46:00.879Z,71.20
2023-08-23T16:49:02.504Z,73.10
2023-08-23T16:52:04.579Z,72.00
2023-08-23T16:55:06.854Z,72.40
2023-08-23T16:58:08.519Z,72.20
2023-08-23T17:01:10.603Z,72.20
2023-08-23T17:04:12.281Z,71.90
2023-08-23T17:07:15.351Z,74.80
2023-08-23T17:10:17.175Z,75.30
2023-08-23T17:13:18.835Z,74.30
2023-08-23T17:16:22.468Z,74.30
2023-08-23T17:19:24.175Z,73.70
2023-08-23T17:22:25.845Z,73.90
2023-08-23T17:25:28.635Z,74.30
2023-08-23T17:28:30.234Z,74.20
2023-08-23T17:31:31.947Z,73.70
2023-08-23T17:34:33.585Z,74.00
2023-08-23T17:37:35.252Z,73.50
2023-08-23T17:40:37.164Z,73.20
2023-08-23T17:43:39.250Z,73.30
2023-08-23T17:46:42.900Z,74.00
2023-08-23T17:49:44.613Z,73.50
2023-08-23T17:52:47.840Z,72.30
2023-08-23T17:55:59.021Z,69.10
2023-08-23T17:59:00.678Z,68.10
2023-08-23T18:02:02.296Z,67.00
2023-08-23T18:05:04.461Z,67.80
2023-08-23T18:08:06.248Z,67.40
2023-08-23T18:11:08.432Z,69.00
2023-08-23T18:14:10.056Z,70.80
2023-08-23T18:17:11.724Z,74.00
2023-08-23T18:20:13.350Z,75.50
2023-08-23T18:23:15.157Z,76.00
2023-08-23T18:26:16.745Z,76.50
2023-08-23T18:29:18.377Z,78.00
2023-08-23T18:32:20.000Z,78.50
2023-08-23T18:35:21.618Z,78.50
2023-08-23T18:38:23.394Z,79.90
2023-08-23T18:41:25.040Z,79.30
2023-08-23T18:44:27.839Z,80.70
2023-08-23T18:47:30.637Z,80.10
2023-08-23T18:50:32.435Z,80.20
2023-08-23T18:53:34.883Z,79.80
2023-08-23T18:56:38.786Z,81.50
2023-08-23T18:59:40.372Z,80.70
2023-08-23T19:02:42.223Z,83.00
2023-08-23T19:05:44.035Z,82.40
2023-08-23T19:08:45.762Z,81.70
2023-08-23T19:11:47.504Z,81.40
2023-08-23T19:14:49.125Z,82.90
2023-08-23T19:17:53.534Z,82.50
2023-08-23T19:20:55.290Z,82.80
2023-08-23T19:23:56.963Z,82.70
2023-08-23T19:26:58.716Z,83.10
2023-08-23T19:30:00.419Z,82.70
2023-08-23T19:33:02.157Z,83.80
2023-08-23T19:36:04.868Z,83.60
2023-08-23T19:39:06.446Z,82.80
2023-08-23T19:42:08.141Z,84.30
2023-08-23T19:45:12.287Z,82.10
2023-08-23T19:48:31.698Z,83.40
2023-08-23T19:51:41.664Z,83.90
2023-08-23T19:54:43.829Z,84.30
2023-08-23T19:57:48.257Z,84.90
2023-08-23T20:00:50.296Z,83.90
2023-08-23T20:03:52.651Z,84.40
2023-08-23T20:06:54.283Z,85.70
2023-08-23T20:09:55.868Z,85.60
2023-08-23T20:12:57.541Z,85.30
2023-08-23T20:15:59.670Z,86.90
2023-08-23T20:19:02.142Z,85.90
2023-08-23T20:22:03.910Z,86.00
2023-08-23T20:25:06.322Z,86.50
2023-08-23T20:28:07.966Z,86.40
2023-08-23T20:31:09.745Z,87.60
2023-08-23T20:34:11.356Z,86.80
2023-08-23T20:37:13.386Z,88.00
2023-08-23T20:40:15.172Z,86.40
2023-08-23T20:43:17.300Z,87.50
2023-08-23T20:46:18.994Z,88.20
2023-08-23T20:49:20.679Z,87.80
2023-08-23T20:52:22.257Z,89.40
2023-08-23T20:55:23.846Z,88.40
2023-08-23T20:58:25.442Z,89.50
2023-08-23T21:01:27.275Z,88.70
2023-08-23T21:04:31.670Z,89.50
2023-08-23T21:07:34.674Z,90.10
2023-08-23T21:10:41.076Z,89.70
2023-08-23T21:13:42.921Z,89.50
2023-08-23T21:16:45.332Z,90.00
2023-08-23T21:19:48.038Z,90.10
2023-08-23T21:22:49.766Z,90.20
2023-08-23T21:25:51.815Z,89.30
2023-08-23T21:28:53.635Z,89.10
2023-08-23T21:31:55.335Z,90.20
2023-08-23T21:34:57.216Z,89.90
2023-08-23T21:37:59.726Z,89.90
2023-08-23T21:41:01.442Z,89.70
2023-08-23T21:44:03.081Z,90.20
2023-08-23T21:47:04.780Z,90.00
2023-08-23T21:50:07.025Z,90.10
2023-08-23T21:53:08.689Z,89.50
2023-08-23T21:56:10.418Z,90.10
2023-08-23T21:59:14.232Z,90.70
2023-08-23T22:02:15.983Z,90.20
2023-08-23T22:05:17.851Z,90.90
2023-08-23T22:08:19.535Z,90.50
2023-08-23T22:11:23.290Z,90.70
2023-08-23T22:14:24.887Z,90.70
2023-08-23T22:17:26.548Z,90.80
2023-08-23T22:20:28.291Z,90.90
2023-08-23T22:23:30.009Z,91.50
2023-08-23T22:26:32.214Z,91.00
2023-08-23T22:29:33.880Z,91.20
2023-08-23T22:32:35.522Z,91.70
2023-08-23T22:35:38.567Z,91.70
2023-08-23T22:38:44.369Z,91.40
2023-08-23T22:41:46.235Z,91.40
2023-08-23T22:44:47.953Z,91.80
2023-08-23T22:47:49.803Z,92.00
2023-08-23T22:54:17.413Z,92.50
2023-08-23T22:57:19.087Z,91.80
2023-08-23T23:00:20.776Z,91.90
2023-08-23T23:03:22.441Z,91.90
2023-08-23T23:06:24.244Z,92.00
2023-08-23T23:09:25.854Z,92.60
2023-08-23T23:12:28.737Z,92.30
2023-08-23T23:15:30.460Z,92.60
2023-08-23T23:18:38.372Z,92.40
2023-08-23T23:21:39.981Z,92.40
2023-08-23T23:24:41.651Z,92.10
2023-08-23T23:27:43.395Z,92.50
2023-08-23T23:30:45.067Z,92.50
2023-08-23T23:33:46.778Z,92.30
2023-08-23T23:36:48.965Z,92.40
2023-08-23T23:39:52.347Z,92.60
2023-08-23T23:42:55.094Z,92.70
2023-08-23T23:45:56.785Z,92.50
2023-08-23T23:48:58.415Z,92.10
2023-08-23T23:52:00.004Z,92.30
2023-08-23T23:55:01.859Z,92.20
2023-08-23T23:58:06.792Z,92.10
